Current Weather

University of Illinois/Willard

Champaign/Urbana, Illinois (KCMI)

Report from: Tuesday, April 23, 2024 2:53 AM CDT
Current time: Tuesday, April 23, 2024 3:37 AM CDT

Nearby weather – Weather history – Daily summaries
Weather forecast

Temperature11.7°C (53.1°F)
Dew point2.2°C (36.0°F)
Winds 14 kts (7.2 m/s, 16.1 mph) South (190°)
Visibility10 mi. (16.1 km)
Clouds Sky clear
Altimeter29.91 in.Hg (1013 mB)
Relative humidity52 %
Density altitude-260 ft. (-79 m)
Sea-level pressure101.3 kPa (1013 mB, 29.90 in.Hg)
Remarks Fully automated report
Automated weather observing station with precipitation discriminator
Flight conditions Visual Meteorological Conditions
Raw dataKCMI 230753Z AUTO 19014KT 10SM CLR 12/02 A2991 RMK AO2 SLP125 T01170022
An error has occurred. This application may no longer respond until reloaded. Reload 🗙